sensor_id;sensor_type;location;lat;lon;timestamp;P1;durP1;ratioP1;P2;durP2;ratioP2
43986;SDS011;29650;47.378;8.300;2022-11-12T00:01:15;12.30;;;7.07;;
43986;SDS011;29650;47.378;8.300;2022-11-12T00:03:42;16.27;;;8.02;;
43986;SDS011;29650;47.378;8.300;2022-11-12T00:06:09;12.63;;;7.03;;
43986;SDS011;29650;47.378;8.300;2022-11-12T00:08:36;13.82;;;6.88;;
43986;SDS011;29650;47.378;8.300;2022-11-12T00:11:05;10.95;;;7.07;;
43986;SDS011;29650;47.378;8.300;2022-11-12T00:13:32;12.73;;;7.30;;
43986;SDS011;29650;47.378;8.300;2022-11-12T00:15:59;14.48;;;7.90;;
43986;SDS011;29650;47.378;8.300;2022-11-12T00:18:26;17.23;;;8.20;;
43986;SDS011;29650;47.378;8.300;2022-11-12T00:20:53;15.52;;;8.52;;
43986;SDS011;29650;47.378;8.300;2022-11-12T00:23:20;15.45;;;8.05;;
43986;SDS011;29650;47.378;8.300;2022-11-12T00:25:46;19.80;;;8.30;;
43986;SDS011;29650;47.378;8.300;2022-11-12T00:28:15;18.73;;;7.53;;
43986;SDS011;29650;47.378;8.300;2022-11-12T00:30:41;13.98;;;7.53;;
43986;SDS011;29650;47.378;8.300;2022-11-12T00:33:08;17.45;;;9.27;;
43986;SDS011;29650;47.378;8.300;2022-11-12T00:35:35;21.13;;;9.32;;
43986;SDS011;29650;47.378;8.300;2022-11-12T00:38:02;14.60;;;7.90;;
43986;SDS011;29650;47.378;8.300;2022-11-12T00:40:29;13.50;;;7.47;;
43986;SDS011;29650;47.378;8.300;2022-11-12T00:42:56;16.90;;;8.45;;
43986;SDS011;29650;47.378;8.300;2022-11-12T00:45:24;15.32;;;7.53;;
43986;SDS011;29650;47.378;8.300;2022-11-12T00:47:53;16.63;;;8.57;;
43986;SDS011;29650;47.378;8.300;2022-11-12T00:50:21;14.25;;;7.78;;
43986;SDS011;29650;47.378;8.300;2022-11-12T00:52:50;13.02;;;7.97;;
43986;SDS011;29650;47.378;8.300;2022-11-12T00:55:17;15.70;;;7.45;;
43986;SDS011;29650;47.378;8.300;2022-11-12T00:57:44;15.35;;;7.40;;
43986;SDS011;29650;47.378;8.300;2022-11-12T01:00:13;16.45;;;8.68;;
43986;SDS011;29650;47.378;8.300;2022-11-12T01:02:42;17.40;;;7.90;;
43986;SDS011;29650;47.378;8.300;2022-11-12T01:05:08;17.73;;;7.70;;
43986;SDS011;29650;47.378;8.300;2022-11-12T01:07:35;18.23;;;8.57;;
43986;SDS011;29650;47.378;8.300;2022-11-12T01:10:03;17.08;;;8.20;;
43986;SDS011;29650;47.378;8.300;2022-11-12T01:12:30;16.55;;;8.77;;
43986;SDS011;29650;47.378;8.300;2022-11-12T01:14:57;15.55;;;9.20;;
43986;SDS011;29650;47.378;8.300;2022-11-12T01:17:24;19.17;;;9.05;;
43986;SDS011;29650;47.378;8.300;2022-11-12T01:19:52;18.23;;;8.93;;
43986;SDS011;29650;47.378;8.300;2022-11-12T01:22:19;19.15;;;9.00;;
43986;SDS011;29650;47.378;8.300;2022-11-12T01:24:46;19.60;;;9.40;;
43986;SDS011;29650;47.378;8.300;2022-11-12T01:27:13;16.50;;;9.35;;
43986;SDS011;29650;47.378;8.300;2022-11-12T01:29:40;19.48;;;10.07;;
43986;SDS011;29650;47.378;8.300;2022-11-12T01:32:06;18.58;;;9.68;;
43986;SDS011;29650;47.378;8.300;2022-11-12T01:34:33;20.55;;;9.65;;
43986;SDS011;29650;47.378;8.300;2022-11-12T01:37:02;21.67;;;10.57;;
43986;SDS011;29650;47.378;8.300;2022-11-12T01:39:29;18.60;;;9.07;;
43986;SDS011;29650;47.378;8.300;2022-11-12T01:41:55;18.00;;;8.95;;
43986;SDS011;29650;47.378;8.300;2022-11-12T01:44:23;22.48;;;9.40;;
43986;SDS011;29650;47.378;8.300;2022-11-12T01:46:55;22.73;;;10.55;;
43986;SDS011;29650;47.378;8.300;2022-11-12T01:49:26;22.45;;;10.82;;
43986;SDS011;29650;47.378;8.300;2022-11-12T01:51:57;24.63;;;10.60;;
43986;SDS011;29650;47.378;8.300;2022-11-12T01:54:33;32.55;;;12.88;;
43986;SDS011;29650;47.378;8.300;2022-11-12T01:57:01;28.83;;;12.25;;
43986;SDS011;29650;47.378;8.300;2022-11-12T01:59:29;25.58;;;12.35;;
43986;SDS011;29650;47.378;8.300;2022-11-12T02:01:59;29.13;;;11.90;;
43986;SDS011;29650;47.378;8.300;2022-11-12T02:04:26;25.98;;;10.93;;
43986;SDS011;29650;47.378;8.300;2022-11-12T02:06:54;20.48;;;10.73;;
43986;SDS011;29650;47.378;8.300;2022-11-12T02:09:24;28.55;;;10.88;;
43986;SDS011;29650;47.378;8.300;2022-11-12T02:11:51;25.00;;;11.05;;
43986;SDS011;29650;47.378;8.300;2022-11-12T02:14:18;28.13;;;11.48;;
43986;SDS011;29650;47.378;8.300;2022-11-12T02:16:44;23.88;;;11.40;;
43986;SDS011;29650;47.378;8.300;2022-11-12T02:19:14;21.50;;;10.03;;
43986;SDS011;29650;47.378;8.300;2022-11-12T02:21:43;25.00;;;11.03;;
43986;SDS011;29650;47.378;8.300;2022-11-12T02:24:32;27.45;;;10.93;;
43986;SDS011;29650;47.378;8.300;2022-11-12T02:27:01;22.73;;;10.43;;
43986;SDS011;29650;47.378;8.300;2022-11-12T02:29:30;24.50;;;11.10;;
43986;SDS011;29650;47.378;8.300;2022-11-12T02:31:58;27.08;;;12.88;;
43986;SDS011;29650;47.378;8.300;2022-11-12T02:34:24;27.08;;;11.77;;
43986;SDS011;29650;47.378;8.300;2022-11-12T02:36:53;28.27;;;11.32;;
43986;SDS011;29650;47.378;8.300;2022-11-12T02:39:20;26.77;;;10.52;;
43986;SDS011;29650;47.378;8.300;2022-11-12T02:41:47;23.95;;;10.23;;
43986;SDS011;29650;47.378;8.300;2022-11-12T02:44:13;22.58;;;10.63;;
43986;SDS011;29650;47.378;8.300;2022-11-12T02:46:40;31.17;;;11.38;;
43986;SDS011;29650;47.378;8.300;2022-11-12T02:49:07;19.95;;;9.05;;
43986;SDS011;29650;47.378;8.300;2022-11-12T02:51:34;22.60;;;10.13;;
43986;SDS011;29650;47.378;8.300;2022-11-12T02:54:03;18.25;;;10.15;;
43986;SDS011;29650;47.378;8.300;2022-11-12T02:56:30;24.23;;;10.10;;
43986;SDS011;29650;47.378;8.300;2022-11-12T02:58:57;19.70;;;8.45;;
43986;SDS011;29650;47.378;8.300;2022-11-12T03:01:24;26.10;;;9.77;;
43986;SDS011;29650;47.378;8.300;2022-11-12T03:03:51;19.55;;;8.90;;
43986;SDS011;29650;47.378;8.300;2022-11-12T03:06:18;22.40;;;9.32;;
43986;SDS011;29650;47.378;8.300;2022-11-12T03:08:45;18.33;;;8.50;;
43986;SDS011;29650;47.378;8.300;2022-11-12T03:11:14;22.85;;;9.20;;
43986;SDS011;29650;47.378;8.300;2022-11-12T03:13:41;22.77;;;8.68;;
43986;SDS011;29650;47.378;8.300;2022-11-12T03:16:09;21.50;;;10.73;;
43986;SDS011;29650;47.378;8.300;2022-11-12T03:18:36;23.98;;;10.07;;
43986;SDS011;29650;47.378;8.300;2022-11-12T03:21:03;21.67;;;9.35;;
43986;SDS011;29650;47.378;8.300;2022-11-12T03:23:30;25.30;;;10.30;;
43986;SDS011;29650;47.378;8.300;2022-11-12T03:25:57;25.45;;;9.55;;
43986;SDS011;29650;47.378;8.300;2022-11-12T03:28:28;22.15;;;10.70;;
43986;SDS011;29650;47.378;8.300;2022-11-12T03:30:55;27.10;;;11.37;;
43986;SDS011;29650;47.378;8.300;2022-11-12T03:33:23;18.33;;;9.13;;
43986;SDS011;29650;47.378;8.300;2022-11-12T03:35:50;22.25;;;9.88;;
43986;SDS011;29650;47.378;8.300;2022-11-12T03:38:17;22.00;;;8.63;;
43986;SDS011;29650;47.378;8.300;2022-11-12T03:40:44;23.33;;;9.63;;
43986;SDS011;29650;47.378;8.300;2022-11-12T03:43:11;20.42;;;9.90;;
43986;SDS011;29650;47.378;8.300;2022-11-12T03:45:39;23.25;;;11.05;;
43986;SDS011;29650;47.378;8.300;2022-11-12T03:48:06;25.33;;;9.80;;
43986;SDS011;29650;47.378;8.300;2022-11-12T03:50:33;29.55;;;9.57;;
43986;SDS011;29650;47.378;8.300;2022-11-12T03:53:00;20.48;;;10.05;;
43986;SDS011;29650;47.378;8.300;2022-11-12T03:55:27;24.42;;;10.10;;
43986;SDS011;29650;47.378;8.300;2022-11-12T03:57:55;22.98;;;10.05;;
43986;SDS011;29650;47.378;8.300;2022-11-12T04:00:24;20.80;;;9.88;;
43986;SDS011;29650;47.378;8.300;2022-11-12T04:02:54;17.55;;;8.05;;
43986;SDS011;29650;47.378;8.300;2022-11-12T04:05:21;18.03;;;8.57;;
43986;SDS011;29650;47.378;8.300;2022-11-12T04:08:22;13.75;;;6.85;;
43986;SDS011;29650;47.378;8.300;2022-11-12T04:11:03;15.43;;;6.78;;
43986;SDS011;29650;47.378;8.300;2022-11-12T04:13:31;16.30;;;7.30;;
43986;SDS011;29650;47.378;8.300;2022-11-12T04:15:59;15.98;;;7.88;;
43986;SDS011;29650;47.378;8.300;2022-11-12T04:18:47;13.65;;;7.63;;
43986;SDS011;29650;47.378;8.300;2022-11-12T04:21:35;13.50;;;7.60;;
43986;SDS011;29650;47.378;8.300;2022-11-12T04:24:22;13.63;;;6.68;;
43986;SDS011;29650;47.378;8.300;2022-11-12T04:27:08;22.98;;;8.43;;
43986;SDS011;29650;47.378;8.300;2022-11-12T04:29:37;16.73;;;8.30;;
43986;SDS011;29650;47.378;8.300;2022-11-12T04:32:21;19.33;;;8.73;;
43986;SDS011;29650;47.378;8.300;2022-11-12T04:34:50;20.38;;;8.25;;
43986;SDS011;29650;47.378;8.300;2022-11-12T04:37:18;15.18;;;7.38;;
43986;SDS011;29650;47.378;8.300;2022-11-12T04:39:45;15.45;;;7.72;;
43986;SDS011;29650;47.378;8.300;2022-11-12T04:42:12;24.52;;;9.18;;
43986;SDS011;29650;47.378;8.300;2022-11-12T04:44:56;17.70;;;7.93;;
43986;SDS011;29650;47.378;8.300;2022-11-12T04:47:30;17.63;;;7.90;;
43986;SDS011;29650;47.378;8.300;2022-11-12T04:50:00;19.13;;;8.63;;
43986;SDS011;29650;47.378;8.300;2022-11-12T04:52:28;13.63;;;7.18;;
43986;SDS011;29650;47.378;8.300;2022-11-12T04:54:56;16.55;;;7.70;;
43986;SDS011;29650;47.378;8.300;2022-11-12T04:57:23;18.85;;;7.53;;
43986;SDS011;29650;47.378;8.300;2022-11-12T04:59:50;19.50;;;8.93;;
43986;SDS011;29650;47.378;8.300;2022-11-12T05:02:17;17.30;;;8.02;;
43986;SDS011;29650;47.378;8.300;2022-11-12T05:04:44;17.45;;;8.07;;
43986;SDS011;29650;47.378;8.300;2022-11-12T05:07:13;18.48;;;7.90;;
43986;SDS011;29650;47.378;8.300;2022-11-12T05:09:40;17.63;;;8.45;;
43986;SDS011;29650;47.378;8.300;2022-11-12T05:12:07;14.05;;;7.85;;
43986;SDS011;29650;47.378;8.300;2022-11-12T05:14:34;14.05;;;6.90;;
43986;SDS011;29650;47.378;8.300;2022-11-12T05:17:01;13.07;;;6.93;;
43986;SDS011;29650;47.378;8.300;2022-11-12T05:19:28;15.13;;;7.03;;
43986;SDS011;29650;47.378;8.300;2022-11-12T05:21:55;16.17;;;7.07;;
43986;SDS011;29650;47.378;8.300;2022-11-12T05:24:36;17.27;;;8.27;;
43986;SDS011;29650;47.378;8.300;2022-11-12T05:27:06;17.13;;;8.10;;
43986;SDS011;29650;47.378;8.300;2022-11-12T05:29:35;16.00;;;7.78;;
43986;SDS011;29650;47.378;8.300;2022-11-12T05:32:02;18.02;;;8.82;;
43986;SDS011;29650;47.378;8.300;2022-11-12T05:34:30;18.65;;;8.93;;
43986;SDS011;29650;47.378;8.300;2022-11-12T05:36:57;16.98;;;8.05;;
43986;SDS011;29650;47.378;8.300;2022-11-12T05:39:24;23.02;;;8.75;;
43986;SDS011;29650;47.378;8.300;2022-11-12T05:41:52;17.00;;;7.63;;
43986;SDS011;29650;47.378;8.300;2022-11-12T05:44:20;18.77;;;6.73;;
43986;SDS011;29650;47.378;8.300;2022-11-12T05:46:47;16.90;;;6.85;;
43986;SDS011;29650;47.378;8.300;2022-11-12T05:49:14;16.45;;;7.60;;
43986;SDS011;29650;47.378;8.300;2022-11-12T05:51:42;16.98;;;7.85;;
43986;SDS011;29650;47.378;8.300;2022-11-12T05:54:10;16.77;;;7.43;;
43986;SDS011;29650;47.378;8.300;2022-11-12T05:56:37;20.05;;;7.45;;
43986;SDS011;29650;47.378;8.300;2022-11-12T05:59:09;16.98;;;8.15;;
43986;SDS011;29650;47.378;8.300;2022-11-12T06:01:37;17.23;;;7.47;;
43986;SDS011;29650;47.378;8.300;2022-11-12T06:04:08;18.00;;;8.27;;
43986;SDS011;29650;47.378;8.300;2022-11-12T06:06:36;15.23;;;7.32;;
43986;SDS011;29650;47.378;8.300;2022-11-12T06:09:03;14.82;;;7.53;;
43986;SDS011;29650;47.378;8.300;2022-11-12T06:11:30;16.35;;;6.95;;
43986;SDS011;29650;47.378;8.300;2022-11-12T06:13:58;14.32;;;6.85;;
43986;SDS011;29650;47.378;8.300;2022-11-12T06:16:26;14.60;;;6.47;;
43986;SDS011;29650;47.378;8.300;2022-11-12T06:18:53;18.15;;;6.60;;
43986;SDS011;29650;47.378;8.300;2022-11-12T06:21:20;15.27;;;7.80;;
43986;SDS011;29650;47.378;8.300;2022-11-12T06:23:48;14.40;;;6.78;;
43986;SDS011;29650;47.378;8.300;2022-11-12T06:26:17;16.90;;;7.32;;
43986;SDS011;29650;47.378;8.300;2022-11-12T06:28:45;13.13;;;6.53;;
43986;SDS011;29650;47.378;8.300;2022-11-12T06:31:13;17.02;;;8.18;;
43986;SDS011;29650;47.378;8.300;2022-11-12T06:33:41;19.45;;;7.88;;
43986;SDS011;29650;47.378;8.300;2022-11-12T06:36:10;16.35;;;8.23;;
43986;SDS011;29650;47.378;8.300;2022-11-12T06:38:38;16.63;;;7.80;;
43986;SDS011;29650;47.378;8.300;2022-11-12T06:41:06;18.25;;;8.00;;
43986;SDS011;29650;47.378;8.300;2022-11-12T06:43:34;19.52;;;8.27;;
43986;SDS011;29650;47.378;8.300;2022-11-12T06:46:02;19.80;;;7.32;;
43986;SDS011;29650;47.378;8.300;2022-11-12T06:48:30;14.52;;;7.32;;
43986;SDS011;29650;47.378;8.300;2022-11-12T06:51:03;12.10;;;6.38;;
43986;SDS011;29650;47.378;8.300;2022-11-12T06:53:32;14.40;;;6.80;;
43986;SDS011;29650;47.378;8.300;2022-11-12T06:56:02;17.05;;;7.93;;
43986;SDS011;29650;47.378;8.300;2022-11-12T06:58:30;19.08;;;8.43;;
43986;SDS011;29650;47.378;8.300;2022-11-12T07:01:02;18.35;;;7.70;;
43986;SDS011;29650;47.378;8.300;2022-11-12T07:03:30;17.23;;;6.60;;
43986;SDS011;29650;47.378;8.300;2022-11-12T07:05:58;16.77;;;7.30;;
43986;SDS011;29650;47.378;8.300;2022-11-12T07:08:29;16.02;;;7.15;;
43986;SDS011;29650;47.378;8.300;2022-11-12T07:10:56;17.35;;;7.93;;
43986;SDS011;29650;47.378;8.300;2022-11-12T07:13:23;16.60;;;8.48;;
43986;SDS011;29650;47.378;8.300;2022-11-12T07:15:50;16.42;;;7.70;;
43986;SDS011;29650;47.378;8.300;2022-11-12T07:18:18;14.43;;;6.95;;
43986;SDS011;29650;47.378;8.300;2022-11-12T07:20:44;14.18;;;6.82;;
43986;SDS011;29650;47.378;8.300;2022-11-12T07:23:13;13.27;;;6.15;;
43986;SDS011;29650;47.378;8.300;2022-11-12T07:25:40;14.07;;;6.78;;
43986;SDS011;29650;47.378;8.300;2022-11-12T07:28:06;11.82;;;5.75;;
43986;SDS011;29650;47.378;8.300;2022-11-12T07:30:33;21.83;;;7.05;;
43986;SDS011;29650;47.378;8.300;2022-11-12T07:33:00;10.40;;;5.35;;
43986;SDS011;29650;47.378;8.300;2022-11-12T07:35:27;12.65;;;5.38;;
43986;SDS011;29650;47.378;8.300;2022-11-12T07:37:54;13.30;;;6.28;;
43986;SDS011;29650;47.378;8.300;2022-11-12T07:40:22;14.45;;;6.55;;
43986;SDS011;29650;47.378;8.300;2022-11-12T07:42:49;10.00;;;5.90;;
43986;SDS011;29650;47.378;8.300;2022-11-12T07:45:16;14.35;;;7.45;;
43986;SDS011;29650;47.378;8.300;2022-11-12T07:47:43;17.52;;;7.80;;
43986;SDS011;29650;47.378;8.300;2022-11-12T07:50:10;14.95;;;5.90;;
43986;SDS011;29650;47.378;8.300;2022-11-12T07:52:37;13.18;;;6.32;;
43986;SDS011;29650;47.378;8.300;2022-11-12T07:55:04;12.68;;;7.10;;
43986;SDS011;29650;47.378;8.300;2022-11-12T07:57:33;15.18;;;6.88;;
43986;SDS011;29650;47.378;8.300;2022-11-12T08:00:00;14.00;;;6.80;;
43986;SDS011;29650;47.378;8.300;2022-11-12T08:02:27;15.40;;;6.82;;
43986;SDS011;29650;47.378;8.300;2022-11-12T08:04:54;14.68;;;6.38;;
43986;SDS011;29650;47.378;8.300;2022-11-12T08:07:21;13.85;;;6.22;;
43986;SDS011;29650;47.378;8.300;2022-11-12T08:09:48;14.30;;;6.75;;
43986;SDS011;29650;47.378;8.300;2022-11-12T08:12:15;17.80;;;7.25;;
43986;SDS011;29650;47.378;8.300;2022-11-12T08:14:43;15.90;;;7.57;;
43986;SDS011;29650;47.378;8.300;2022-11-12T08:17:10;14.38;;;6.20;;
43986;SDS011;29650;47.378;8.300;2022-11-12T08:19:37;10.13;;;6.35;;
43986;SDS011;29650;47.378;8.300;2022-11-12T08:22:04;11.70;;;6.78;;
43986;SDS011;29650;47.378;8.300;2022-11-12T08:24:31;11.77;;;6.63;;
43986;SDS011;29650;47.378;8.300;2022-11-12T08:26:58;17.52;;;7.55;;
43986;SDS011;29650;47.378;8.300;2022-11-12T08:29:24;11.60;;;5.93;;
43986;SDS011;29650;47.378;8.300;2022-11-12T08:31:53;11.27;;;6.65;;
43986;SDS011;29650;47.378;8.300;2022-11-12T08:34:19;15.60;;;6.80;;
43986;SDS011;29650;47.378;8.300;2022-11-12T08:36:46;16.45;;;7.35;;
43986;SDS011;29650;47.378;8.300;2022-11-12T08:39:14;14.13;;;7.15;;
43986;SDS011;29650;47.378;8.300;2022-11-12T08:41:41;13.93;;;6.43;;
43986;SDS011;29650;47.378;8.300;2022-11-12T08:44:08;14.23;;;6.25;;
43986;SDS011;29650;47.378;8.300;2022-11-12T08:46:34;13.05;;;7.30;;
43986;SDS011;29650;47.378;8.300;2022-11-12T08:49:03;17.23;;;7.10;;
43986;SDS011;29650;47.378;8.300;2022-11-12T08:51:30;12.63;;;7.05;;
43986;SDS011;29650;47.378;8.300;2022-11-12T08:53:57;14.65;;;7.40;;
43986;SDS011;29650;47.378;8.300;2022-11-12T08:56:23;16.52;;;7.50;;
43986;SDS011;29650;47.378;8.300;2022-11-12T08:58:50;15.88;;;7.38;;
43986;SDS011;29650;47.378;8.300;2022-11-12T09:01:17;22.65;;;8.20;;
43986;SDS011;29650;47.378;8.300;2022-11-12T09:03:44;16.52;;;8.20;;
43986;SDS011;29650;47.378;8.300;2022-11-12T09:06:12;11.77;;;6.07;;
43986;SDS011;29650;47.378;8.300;2022-11-12T09:08:39;16.80;;;7.35;;
43986;SDS011;29650;47.378;8.300;2022-11-12T09:11:06;12.93;;;6.75;;
43986;SDS011;29650;47.378;8.300;2022-11-12T09:13:33;16.10;;;7.43;;
43986;SDS011;29650;47.378;8.300;2022-11-12T09:16:01;13.75;;;6.43;;
43986;SDS011;29650;47.378;8.300;2022-11-12T09:18:29;12.90;;;6.77;;
43986;SDS011;29650;47.378;8.300;2022-11-12T09:21:00;13.70;;;6.90;;
43986;SDS011;29650;47.378;8.300;2022-11-12T09:23:30;14.88;;;8.05;;
43986;SDS011;29650;47.378;8.300;2022-11-12T09:25:58;12.77;;;6.25;;
43986;SDS011;29650;47.378;8.300;2022-11-12T09:28:25;17.23;;;6.93;;
43986;SDS011;29650;47.378;8.300;2022-11-12T09:30:53;13.57;;;6.63;;
43986;SDS011;29650;47.378;8.300;2022-11-12T09:33:21;13.20;;;6.85;;
43986;SDS011;29650;47.378;8.300;2022-11-12T09:35:49;14.40;;;6.82;;
43986;SDS011;29650;47.378;8.300;2022-11-12T09:38:17;14.95;;;8.02;;
43986;SDS011;29650;47.378;8.300;2022-11-12T09:40:47;12.02;;;6.30;;
43986;SDS011;29650;47.378;8.300;2022-11-12T09:43:36;13.00;;;6.82;;
43986;SDS011;29650;47.378;8.300;2022-11-12T09:46:08;13.63;;;6.72;;
43986;SDS011;29650;47.378;8.300;2022-11-12T09:48:46;12.40;;;7.38;;
43986;SDS011;29650;47.378;8.300;2022-11-12T09:51:19;14.38;;;6.93;;
43986;SDS011;29650;47.378;8.300;2022-11-12T09:53:51;15.02;;;7.05;;
43986;SDS011;29650;47.378;8.300;2022-11-12T09:56:22;18.25;;;7.55;;
43986;SDS011;29650;47.378;8.300;2022-11-12T09:58:52;13.43;;;7.18;;
43986;SDS011;29650;47.378;8.300;2022-11-12T10:01:21;17.67;;;7.35;;
43986;SDS011;29650;47.378;8.300;2022-11-12T10:03:59;12.60;;;6.38;;
43986;SDS011;29650;47.378;8.300;2022-11-12T10:06:48;13.80;;;6.15;;
43986;SDS011;29650;47.378;8.300;2022-11-12T10:09:22;15.48;;;7.47;;
43986;SDS011;29650;47.378;8.300;2022-11-12T10:11:59;13.88;;;7.82;;
43986;SDS011;29650;47.378;8.300;2022-11-12T10:14:52;16.38;;;8.32;;
43986;SDS011;29650;47.378;8.300;2022-11-12T10:17:49;14.32;;;7.13;;
43986;SDS011;29650;47.378;8.300;2022-11-12T10:20:19;13.57;;;6.30;;
43986;SDS011;29650;47.378;8.300;2022-11-12T10:22:57;11.73;;;5.70;;
43986;SDS011;29650;47.378;8.300;2022-11-12T10:25:33;12.35;;;6.55;;
43986;SDS011;29650;47.378;8.300;2022-11-12T10:28:03;12.25;;;6.47;;
43986;SDS011;29650;47.378;8.300;2022-11-12T10:30:37;16.42;;;7.15;;
43986;SDS011;29650;47.378;8.300;2022-11-12T10:33:09;14.75;;;7.35;;
43986;SDS011;29650;47.378;8.300;2022-11-12T10:35:38;12.85;;;6.35;;
43986;SDS011;29650;47.378;8.300;2022-11-12T10:38:08;16.00;;;7.47;;
43986;SDS011;29650;47.378;8.300;2022-11-12T10:40:39;18.65;;;7.70;;
43986;SDS011;29650;47.378;8.300;2022-11-12T10:43:20;14.23;;;7.37;;
43986;SDS011;29650;47.378;8.300;2022-11-12T10:45:48;12.25;;;6.82;;
43986;SDS011;29650;47.378;8.300;2022-11-12T10:48:20;16.13;;;7.18;;
43986;SDS011;29650;47.378;8.300;2022-11-12T10:50:48;16.08;;;6.10;;
43986;SDS011;29650;47.378;8.300;2022-11-12T10:53:27;15.65;;;7.05;;
43986;SDS011;29650;47.378;8.300;2022-11-12T10:55:58;16.13;;;7.55;;
43986;SDS011;29650;47.378;8.300;2022-11-12T10:58:27;15.13;;;6.97;;
43986;SDS011;29650;47.378;8.300;2022-11-12T11:00:58;17.77;;;7.82;;
43986;SDS011;29650;47.378;8.300;2022-11-12T11:03:27;13.93;;;6.38;;
43986;SDS011;29650;47.378;8.300;2022-11-12T11:05:58;14.77;;;8.50;;
43986;SDS011;29650;47.378;8.300;2022-11-12T11:08:31;29.70;;;15.43;;
43986;SDS011;29650;47.378;8.300;2022-11-12T11:11:21;16.00;;;8.15;;
43986;SDS011;29650;47.378;8.300;2022-11-12T11:13:52;16.70;;;8.13;;
43986;SDS011;29650;47.378;8.300;2022-11-12T11:16:21;13.38;;;7.28;;
43986;SDS011;29650;47.378;8.300;2022-11-12T11:18:49;13.65;;;6.57;;
43986;SDS011;29650;47.378;8.300;2022-11-12T11:24:24;17.98;;;7.90;;
43986;SDS011;29650;47.378;8.300;2022-11-12T11:27:02;16.08;;;8.80;;
43986;SDS011;29650;47.378;8.300;2022-11-12T11:29:53;18.63;;;8.73;;
43986;SDS011;29650;47.378;8.300;2022-11-12T11:32:38;15.02;;;6.63;;
43986;SDS011;29650;47.378;8.300;2022-11-12T11:38:11;17.13;;;8.55;;
43986;SDS011;29650;47.378;8.300;2022-11-12T11:40:47;19.10;;;8.80;;
43986;SDS011;29650;47.378;8.300;2022-11-12T11:43:31;18.77;;;9.02;;
43986;SDS011;29650;47.378;8.300;2022-11-12T11:46:14;17.25;;;7.80;;
43986;SDS011;29650;47.378;8.300;2022-11-12T11:48:49;20.38;;;8.63;;
43986;SDS011;29650;47.378;8.300;2022-11-12T11:51:31;20.05;;;9.27;;
43986;SDS011;29650;47.378;8.300;2022-11-12T11:56:39;20.65;;;9.05;;
43986;SDS011;29650;47.378;8.300;2022-11-12T11:59:12;20.23;;;8.90;;
43986;SDS011;29650;47.378;8.300;2022-11-12T12:01:53;18.35;;;9.60;;
43986;SDS011;29650;47.378;8.300;2022-11-12T12:07:10;16.00;;;7.53;;
43986;SDS011;29650;47.378;8.300;2022-11-12T12:09:47;15.70;;;7.90;;
43986;SDS011;29650;47.378;8.300;2022-11-12T12:12:23;16.75;;;7.72;;
43986;SDS011;29650;47.378;8.300;2022-11-12T12:15:17;18.10;;;8.00;;
43986;SDS011;29650;47.378;8.300;2022-11-12T12:18:06;14.82;;;7.45;;
43986;SDS011;29650;47.378;8.300;2022-11-12T12:20:40;19.83;;;8.88;;
43986;SDS011;29650;47.378;8.300;2022-11-12T12:23:16;16.73;;;8.07;;
43986;SDS011;29650;47.378;8.300;2022-11-12T12:25:48;20.45;;;8.70;;
43986;SDS011;29650;47.378;8.300;2022-11-12T12:28:23;20.02;;;9.15;;
43986;SDS011;29650;47.378;8.300;2022-11-12T12:31:00;18.58;;;8.88;;
43986;SDS011;29650;47.378;8.300;2022-11-12T12:33:35;18.90;;;8.82;;
43986;SDS011;29650;47.378;8.300;2022-11-12T12:36:08;18.60;;;9.05;;
43986;SDS011;29650;47.378;8.300;2022-11-12T12:38:39;17.70;;;8.88;;
43986;SDS011;29650;47.378;8.300;2022-11-12T12:41:12;16.60;;;8.88;;
43986;SDS011;29650;47.378;8.300;2022-11-12T12:43:44;17.73;;;8.25;;
43986;SDS011;29650;47.378;8.300;2022-11-12T12:46:14;18.20;;;7.97;;
43986;SDS011;29650;47.378;8.300;2022-11-12T12:48:47;16.08;;;8.30;;
43986;SDS011;29650;47.378;8.300;2022-11-12T12:51:18;20.15;;;9.52;;
43986;SDS011;29650;47.378;8.300;2022-11-12T12:53:45;27.00;;;14.15;;
43986;SDS011;29650;47.378;8.300;2022-11-12T12:59:19;17.25;;;8.32;;
43986;SDS011;29650;47.378;8.300;2022-11-12T13:01:53;19.35;;;8.60;;
43986;SDS011;29650;47.378;8.300;2022-11-12T13:07:16;20.70;;;10.38;;
43986;SDS011;29650;47.378;8.300;2022-11-12T13:09:45;20.70;;;8.83;;
43986;SDS011;29650;47.378;8.300;2022-11-12T13:12:12;18.92;;;9.90;;
43986;SDS011;29650;47.378;8.300;2022-11-12T13:23:08;20.45;;;9.40;;
43986;SDS011;29650;47.378;8.300;2022-11-12T13:25:37;19.25;;;9.32;;
43986;SDS011;29650;47.378;8.300;2022-11-12T13:28:05;19.80;;;9.27;;
43986;SDS011;29650;47.378;8.300;2022-11-12T13:33:21;16.45;;;7.13;;
43986;SDS011;29650;47.378;8.300;2022-11-12T13:35:52;18.45;;;8.93;;
43986;SDS011;29650;47.378;8.300;2022-11-12T13:38:53;21.95;;;9.40;;
43986;SDS011;29650;47.378;8.300;2022-11-12T13:41:35;18.02;;;9.85;;
43986;SDS011;29650;47.378;8.300;2022-11-12T13:44:19;20.08;;;9.52;;
43986;SDS011;29650;47.378;8.300;2022-11-12T13:46:48;23.75;;;10.02;;
43986;SDS011;29650;47.378;8.300;2022-11-12T13:49:17;18.50;;;8.73;;
43986;SDS011;29650;47.378;8.300;2022-11-12T13:51:46;18.42;;;7.95;;
43986;SDS011;29650;47.378;8.300;2022-11-12T13:54:24;14.93;;;8.45;;
43986;SDS011;29650;47.378;8.300;2022-11-12T13:59:38;19.20;;;8.27;;
43986;SDS011;29650;47.378;8.300;2022-11-12T14:02:11;19.17;;;8.48;;
43986;SDS011;29650;47.378;8.300;2022-11-12T14:07:14;23.88;;;9.68;;
43986;SDS011;29650;47.378;8.300;2022-11-12T14:09:58;18.83;;;8.48;;
43986;SDS011;29650;47.378;8.300;2022-11-12T14:12:37;18.35;;;9.95;;
43986;SDS011;29650;47.378;8.300;2022-11-12T14:15:14;18.27;;;8.52;;
43986;SDS011;29650;47.378;8.300;2022-11-12T14:17:54;18.13;;;8.77;;
43986;SDS011;29650;47.378;8.300;2022-11-12T14:20:28;16.25;;;7.40;;
43986;SDS011;29650;47.378;8.300;2022-11-12T14:23:08;15.30;;;8.05;;
43986;SDS011;29650;47.378;8.300;2022-11-12T14:25:44;16.02;;;7.60;;
43986;SDS011;29650;47.378;8.300;2022-11-12T14:28:22;20.63;;;9.43;;
43986;SDS011;29650;47.378;8.300;2022-11-12T14:30:51;18.65;;;8.10;;
43986;SDS011;29650;47.378;8.300;2022-11-12T14:33:19;15.07;;;7.82;;
43986;SDS011;29650;47.378;8.300;2022-11-12T14:35:47;17.83;;;8.95;;
43986;SDS011;29650;47.378;8.300;2022-11-12T14:38:18;17.45;;;8.68;;
43986;SDS011;29650;47.378;8.300;2022-11-12T14:40:47;17.60;;;8.93;;
43986;SDS011;29650;47.378;8.300;2022-11-12T14:43:24;15.82;;;9.05;;
43986;SDS011;29650;47.378;8.300;2022-11-12T14:45:57;18.45;;;8.35;;
43986;SDS011;29650;47.378;8.300;2022-11-12T14:48:26;17.50;;;8.73;;
43986;SDS011;29650;47.378;8.300;2022-11-12T14:50:55;18.33;;;8.02;;
43986;SDS011;29650;47.378;8.300;2022-11-12T14:53:30;18.45;;;9.70;;
43986;SDS011;29650;47.378;8.300;2022-11-12T14:56:00;17.25;;;8.63;;
43986;SDS011;29650;47.378;8.300;2022-11-12T14:58:29;18.60;;;8.60;;
43986;SDS011;29650;47.378;8.300;2022-11-12T15:00:57;18.70;;;8.55;;
43986;SDS011;29650;47.378;8.300;2022-11-12T15:03:41;21.25;;;9.43;;
43986;SDS011;29650;47.378;8.300;2022-11-12T15:06:09;17.05;;;8.80;;
43986;SDS011;29650;47.378;8.300;2022-11-12T15:08:38;21.38;;;10.60;;
43986;SDS011;29650;47.378;8.300;2022-11-12T15:11:13;17.05;;;9.18;;
43986;SDS011;29650;47.378;8.300;2022-11-12T15:13:42;20.30;;;10.30;;
43986;SDS011;29650;47.378;8.300;2022-11-12T15:16:11;17.77;;;9.32;;
43986;SDS011;29650;47.378;8.300;2022-11-12T15:18:44;18.77;;;8.88;;
43986;SDS011;29650;47.378;8.300;2022-11-12T15:21:33;27.60;;;11.55;;
43986;SDS011;29650;47.378;8.300;2022-11-12T15:24:06;24.05;;;10.45;;
43986;SDS011;29650;47.378;8.300;2022-11-12T15:26:43;23.10;;;9.93;;